Country
Station

 

Weather  for  Elista  -  Russian Federation    Russian Federation

  
22 °C (72 °F)
    
 
 

Current METAR for Elista is :

URWI 230300Z AUTO 08003MPS 9999 // NCD 22/10 Q1015

 

This is a report for Elista - Russian Federation.
 
The report was made 19 minutes ago, at 03:00 UTC .
The wind was blowing at a speed of 3 meters per second (6.7 miles per hour) from east (080°).
 
The temperature was 22 °C (72 °F), with a dew-point at 10 °C (50 °F).
The temperature felt like 25 °C (77 °F).
 
The atmospheric pressure was 1015 hPa (29.97 inHg).
The relative humidity was 46.4%.
 
The overall visibility was greater than 10 kilometers (6.2 miles).
 

 
 
 
 

Country :   A   B   C   D   E   F   G   H   I   J   K   L   M   N   O   P   Q   R   S   T   U   V   W   Y   Z

 

Site Info  |  Disclaimer  |  Credits  |  Privacy
Contact us  |  Add to favorites
© 2013-2019 METARs - All rights reserved